Time;durP1;ratioP1;P1;durP2;ratioP2;P2;SDS_P1;SDS_P2;PMS_P1;PMS_P2;Temp;Humidity;BMP_temperature;BMP_pressure;BME280_temperature;BME280_humidity;BME280_pressure;Samples;Min_cycle;Max_cycle;Signal;HPM_P1;HPM_P2
2023/02/25 00:00:18;;;;;;;13.10;7.70;;;4.50;99.90;;;;;;466426;253;27535;-76
2023/02/25 00:02:19;;;;;;;10.02;6.05;;;4.40;99.90;;;;;;466364;253;27632;-78
2023/02/25 00:04:21;;;;;;;13.10;7.30;;;4.40;99.90;;;;;;466304;255;27680;-78
2023/02/25 00:06:22;;;;;;;8.98;6.60;;;4.30;99.90;;;;;;466309;255;27533;-80
2023/02/25 00:08:23;;;;;;;10.43;7.10;;;4.20;99.90;;;;;;466309;253;27574;-78
2023/02/25 00:10:24;;;;;;;13.48;6.32;;;4.20;99.90;;;;;;466108;255;27610;-81
2023/02/25 00:12:26;;;;;;;10.55;6.30;;;4.20;99.90;;;;;;466332;255;27642;-78
2023/02/25 00:14:27;;;;;;;11.38;6.10;;;4.10;99.90;;;;;;466238;255;28033;-79
2023/02/25 00:16:28;;;;;;;9.93;6.65;;;4.10;99.90;;;;;;466281;255;27989;-81
2023/02/25 00:18:32;;;;;;;17.92;6.35;;;4.10;99.90;;;;;;466262;255;28030;-80
2023/02/25 00:20:31;;;;;;;10.25;6.30;;;4.00;99.90;;;;;;466237;253;27494;-79
2023/02/25 00:22:32;;;;;;;11.20;6.35;;;4.00;99.90;;;;;;466158;255;27545;-78
2023/02/25 00:24:33;;;;;;;7.35;5.30;;;4.10;99.90;;;;;;466278;255;27648;-78
2023/02/25 00:26:34;;;;;;;7.55;6.10;;;4.20;99.90;;;;;;466258;255;27565;-79
2023/02/25 00:28:36;;;;;;;9.75;6.07;;;4.20;99.90;;;;;;466265;255;27596;-80
2023/02/25 00:30:37;;;;;;;13.02;5.97;;;4.20;99.90;;;;;;466285;255;27602;-78
2023/02/25 00:32:38;;;;;;;10.30;5.82;;;4.20;99.90;;;;;;466323;255;27550;-77
2023/02/25 00:34:39;;;;;;;7.72;5.03;;;4.10;99.90;;;;;;466285;255;28035;-80
2023/02/25 00:36:41;;;;;;;8.05;5.03;;;4.10;99.90;;;;;;466284;255;28119;-79
2023/02/25 00:38:42;;;;;;;11.35;5.43;;;4.00;99.90;;;;;;466159;255;28141;-80
2023/02/25 00:40:43;;;;;;;9.05;5.05;;;4.00;99.90;;;;;;466591;253;27658;-79
2023/02/25 00:42:44;;;;;;;10.50;5.50;;;4.00;99.90;;;;;;466136;255;27545;-79
2023/02/25 00:44:46;;;;;;;7.15;4.68;;;4.00;99.90;;;;;;466275;255;27668;-80
2023/02/25 00:46:47;;;;;;;6.65;4.70;;;4.00;99.90;;;;;;466205;255;27553;-77
2023/02/25 00:48:48;;;;;;;7.53;4.78;;;4.00;99.90;;;;;;466270;255;27701;-79
2023/02/25 00:50:49;;;;;;;7.18;5.10;;;4.00;99.90;;;;;;466306;255;27502;-79
2023/02/25 00:52:51;;;;;;;11.68;4.45;;;4.00;99.90;;;;;;466126;255;27586;-80
2023/02/25 00:54:52;;;;;;;8.73;4.85;;;4.00;99.90;;;;;;466281;255;28157;-79
2023/02/25 00:56:54;;;;;;;8.20;5.22;;;4.00;99.90;;;;;;466167;255;27995;-78
2023/02/25 00:58:54;;;;;;;5.85;4.28;;;4.00;99.90;;;;;;466291;255;28155;-78
2023/02/25 01:00:56;;;;;;;7.12;4.50;;;4.00;99.90;;;;;;466277;255;27590;-79
2023/02/25 01:02:57;;;;;;;10.07;4.90;;;4.00;99.90;;;;;;466039;255;27549;-80
2023/02/25 01:04:58;;;;;;;6.03;4.22;;;4.00;99.90;;;;;;466240;255;27554;-80
2023/02/25 01:07:00;;;;;;;6.40;4.20;;;4.00;99.90;;;;;;466353;253;27538;-83
2023/02/25 01:09:01;;;;;;;7.75;4.22;;;4.10;99.90;;;;;;466173;255;27585;-79
2023/02/25 01:11:02;;;;;;;9.00;4.15;;;4.10;99.90;;;;;;466307;255;27605;-77
2023/02/25 01:13:03;;;;;;;5.65;3.78;;;4.10;99.90;;;;;;466282;255;27473;-78
2023/02/25 01:15:04;;;;;;;4.82;3.30;;;4.00;99.90;;;;;;466089;255;27649;-80
2023/02/25 01:17:08;;;;;;;4.82;3.70;;;4.00;99.90;;;;;;466304;254;28950;-82
2023/02/25 01:19:07;;;;;;;9.70;3.65;;;4.00;99.90;;;;;;466289;255;28010;-80
2023/02/25 01:21:08;;;;;;;4.75;3.45;;;3.90;99.90;;;;;;466295;255;29078;-81
2023/02/25 01:23:09;;;;;;;5.70;3.05;;;3.90;99.90;;;;;;466292;255;27533;-81
2023/02/25 01:25:11;;;;;;;3.30;3.00;;;3.80;99.90;;;;;;466319;255;27602;-80
2023/02/25 01:27:12;;;;;;;3.65;2.95;;;3.80;99.90;;;;;;466309;255;27626;-82
2023/02/25 01:29:13;;;;;;;4.28;2.87;;;3.80;99.90;;;;;;466285;255;27555;-81
2023/02/25 01:31:15;;;;;;;5.47;2.75;;;3.80;99.90;;;;;;466238;255;27571;-81
2023/02/25 01:33:16;;;;;;;4.28;2.60;;;3.80;99.90;;;;;;465961;255;27543;-80
2023/02/25 01:35:17;;;;;;;3.67;2.50;;;3.90;99.90;;;;;;466333;255;27586;-80
2023/02/25 01:37:18;;;;;;;4.22;3.20;;;3.90;99.90;;;;;;466235;255;27536;-80
2023/02/25 01:39:19;;;;;;;8.82;2.87;;;3.90;99.90;;;;;;466311;255;27459;-80
2023/02/25 01:41:21;;;;;;;5.28;2.90;;;3.80;99.90;;;;;;466316;255;28144;-80
2023/02/25 01:43:22;;;;;;;6.22;2.62;;;3.80;99.90;;;;;;466269;255;28097;-80
2023/02/25 01:45:23;;;;;;;8.88;2.30;;;3.80;99.90;;;;;;466291;255;29151;-81
2023/02/25 01:47:24;;;;;;;2.85;2.08;;;3.70;99.90;;;;;;466219;255;28700;-81
2023/02/25 01:49:29;;;;;;;2.45;2.10;;;3.70;99.90;;;;;;466257;255;27534;-80
2023/02/25 01:51:30;;;;;;;3.83;1.95;;;3.70;99.90;;;;;;466335;253;27942;-79
2023/02/25 01:53:31;;;;;;;3.12;2.08;;;3.60;99.90;;;;;;466270;255;28078;-80
2023/02/25 01:55:32;;;;;;;9.73;2.20;;;3.60;99.90;;;;;;466244;255;27987;-81
2023/02/25 01:57:34;;;;;;;6.20;1.80;;;3.50;99.90;;;;;;466233;255;28163;-82
2023/02/25 01:59:35;;;;;;;4.53;2.55;;;3.50;99.90;;;;;;466286;253;28071;-81
2023/02/25 02:01:36;;;;;;;5.47;1.70;;;3.40;99.90;;;;;;466316;253;27632;-81
2023/02/25 02:03:37;;;;;;;4.47;1.90;;;3.50;99.90;;;;;;466117;255;27533;-80
2023/02/25 02:05:39;;;;;;;5.35;1.65;;;3.50;99.90;;;;;;466147;255;27541;-81
2023/02/25 02:07:40;;;;;;;4.03;1.60;;;3.50;99.90;;;;;;466210;253;27659;-81
2023/02/25 02:09:54;;;;;;;4.62;1.70;;;3.40;99.90;;;;;;466202;255;27934;-82
2023/02/25 02:11:42;;;;;;;9.20;1.73;;;3.40;99.90;;;;;;466229;255;27575;-79
2023/02/25 02:13:44;;;;;;;4.93;1.52;;;3.40;99.90;;;;;;466245;255;27550;-79
2023/02/25 02:15:45;;;;;;;6.43;1.90;;;3.30;99.90;;;;;;466311;253;28068;-78
2023/02/25 02:17:46;;;;;;;6.75;1.98;;;3.30;99.90;;;;;;466421;253;27578;-78
2023/02/25 02:19:51;;;;;;;5.20;1.92;;;3.20;99.90;;;;;;466225;255;27772;-81
2023/02/25 02:21:49;;;;;;;2.35;1.40;;;3.20;99.90;;;;;;466106;255;27978;-78
2023/02/25 02:23:50;;;;;;;6.97;2.20;;;3.20;99.90;;;;;;466210;255;28049;-77
2023/02/25 02:25:51;;;;;;;3.58;2.08;;;3.20;99.90;;;;;;466239;255;28060;-79
2023/02/25 02:27:53;;;;;;;3.40;1.62;;;3.10;99.90;;;;;;466223;255;29108;-78
2023/02/25 02:29:54;;;;;;;3.37;1.50;;;3.10;99.90;;;;;;466217;253;27663;-80
2023/02/25 02:31:55;;;;;;;5.95;1.70;;;3.10;99.90;;;;;;466217;255;27624;-81
2023/02/25 02:33:56;;;;;;;2.45;1.50;;;3.10;99.90;;;;;;466177;255;27577;-80
2023/02/25 02:35:57;;;;;;;1.92;1.50;;;3.00;99.90;;;;;;466230;255;27537;-79
2023/02/25 02:37:59;;;;;;;3.65;1.50;;;3.00;99.90;;;;;;466331;253;27538;-80
2023/02/25 02:40:00;;;;;;;7.45;1.85;;;3.00;99.90;;;;;;466224;255;27983;-80
2023/02/25 02:42:01;;;;;;;2.55;1.62;;;3.00;99.90;;;;;;466215;255;27724;-77
2023/02/25 02:44:03;;;;;;;3.08;1.35;;;3.00;99.90;;;;;;466217;255;27708;-77
2023/02/25 02:46:04;;;;;;;4.85;1.80;;;3.00;99.90;;;;;;466180;255;27624;-79
2023/02/25 02:48:05;;;;;;;2.40;1.58;;;2.90;99.90;;;;;;466148;255;27578;-77
2023/02/25 02:50:06;;;;;;;7.03;1.83;;;2.90;99.90;;;;;;466379;253;28025;-78
2023/02/25 02:52:07;;;;;;;4.05;1.73;;;2.80;99.90;;;;;;466192;255;28011;-79
2023/02/25 02:54:09;;;;;;;3.62;1.73;;;2.80;99.90;;;;;;466162;255;28142;-77
2023/02/25 02:56:10;;;;;;;3.12;1.70;;;2.80;99.90;;;;;;466231;255;29097;-77
2023/02/25 02:58:11;;;;;;;1.55;1.45;;;2.70;99.90;;;;;;466175;254;27596;-77
2023/02/25 03:00:16;;;;;;;3.42;2.00;;;2.70;99.90;;;;;;466229;255;27567;-80
2023/02/25 03:02:14;;;;;;;5.72;1.60;;;2.70;99.90;;;;;;466211;255;27534;-77
2023/02/25 03:04:15;;;;;;;3.72;1.83;;;2.70;99.90;;;;;;466239;255;27692;-78
2023/02/25 03:06:16;;;;;;;2.45;1.35;;;2.60;99.90;;;;;;466215;255;27542;-80
2023/02/25 03:08:17;;;;;;;1.98;1.65;;;2.60;99.90;;;;;;466423;253;27647;-78
2023/02/25 03:10:19;;;;;;;2.50;1.67;;;2.60;99.90;;;;;;466200;255;28290;-81
2023/02/25 03:12:20;;;;;;;6.25;1.90;;;2.60;99.90;;;;;;466395;253;27673;-77
2023/02/25 03:14:21;;;;;;;2.65;1.58;;;2.60;99.90;;;;;;466215;255;27677;-78
2023/02/25 03:16:23;;;;;;;1.70;1.30;;;2.60;99.90;;;;;;466199;255;27617;-77
2023/02/25 03:18:24;;;;;;;2.78;1.58;;;2.70;99.90;;;;;;466180;255;28019;-78
2023/02/25 03:20:25;;;;;;;4.05;1.70;;;2.70;99.90;;;;;;466198;255;28227;-79
2023/02/25 03:22:26;;;;;;;5.00;1.73;;;2.70;99.90;;;;;;466170;255;29129;-79
2023/02/25 03:24:27;;;;;;;5.28;1.85;;;2.70;99.90;;;;;;466216;255;29165;-78
2023/02/25 03:26:29;;;;;;;1.75;1.50;;;2.80;99.90;;;;;;466235;255;27645;-77
2023/02/25 03:28:30;;;;;;;2.47;1.50;;;2.80;99.90;;;;;;466185;255;27573;-80
2023/02/25 03:30:31;;;;;;;4.03;1.90;;;2.80;99.90;;;;;;466175;255;27594;-76
2023/02/25 03:32:32;;;;;;;3.00;1.58;;;2.90;99.90;;;;;;466191;255;27649;-78
2023/02/25 03:34:34;;;;;;;2.95;1.73;;;2.80;99.90;;;;;;466114;255;27574;-79
2023/02/25 03:36:35;;;;;;;2.33;1.42;;;2.80;99.90;;;;;;466203;255;27634;-77
2023/02/25 03:38:36;;;;;;;5.70;1.50;;;2.80;99.90;;;;;;466209;255;27600;-78
2023/02/25 03:40:37;;;;;;;5.93;1.55;;;2.80;99.90;;;;;;466242;255;27962;-76
2023/02/25 03:42:39;;;;;;;3.40;1.75;;;2.80;99.90;;;;;;466174;255;27545;-78
2023/02/25 03:44:41;;;;;;;2.42;1.40;;;2.80;99.90;;;;;;466062;255;27557;-78
2023/02/25 03:46:41;;;;;;;2.25;1.50;;;2.80;99.90;;;;;;466174;255;28122;-77
2023/02/25 03:48:42;;;;;;;3.58;1.67;;;2.90;99.90;;;;;;466120;255;28052;-78
2023/02/25 03:50:44;;;;;;;5.97;1.50;;;2.90;99.90;;;;;;466157;255;28052;-80
2023/02/25 03:52:45;;;;;;;5.87;1.73;;;2.90;99.90;;;;;;466080;255;27997;-78
2023/02/25 03:54:46;;;;;;;3.60;1.70;;;2.90;99.90;;;;;;466145;255;27660;-77
2023/02/25 03:56:47;;;;;;;4.80;1.70;;;2.90;99.90;;;;;;466228;253;27638;-80
2023/02/25 03:58:49;;;;;;;7.65;2.33;;;2.90;99.90;;;;;;466187;255;27569;-79
2023/02/25 04:00:50;;;;;;;2.37;1.60;;;2.90;99.90;;;;;;466207;255;27691;-77
2023/02/25 04:02:51;;;;;;;3.28;1.87;;;2.90;99.90;;;;;;466273;253;27656;-78
2023/02/25 04:04:52;;;;;;;5.62;2.03;;;2.90;99.90;;;;;;466222;255;27605;-77
2023/02/25 04:06:54;;;;;;;6.15;1.75;;;2.90;99.90;;;;;;466206;255;27660;-79
2023/02/25 04:08:55;;;;;;;4.68;2.12;;;2.90;99.90;;;;;;466563;253;27566;-78
2023/02/25 04:10:56;;;;;;;4.45;2.17;;;2.90;99.90;;;;;;466254;254;27660;-79
2023/02/25 04:12:57;;;;;;;2.33;2.10;;;3.00;99.90;;;;;;466176;255;27606;-78
2023/02/25 04:14:59;;;;;;;4.32;1.80;;;3.00;99.90;;;;;;466151;255;28090;-78
2023/02/25 04:17:00;;;;;;;6.60;2.00;;;3.00;99.90;;;;;;465922;255;28848;-80
2023/02/25 04:19:02;;;;;;;3.37;1.95;;;3.10;99.90;;;;;;466207;255;28127;-78
2023/02/25 04:21:02;;;;;;;5.72;2.00;;;3.10;99.90;;;;;;466172;255;28155;-79
2023/02/25 04:23:04;;;;;;;6.07;2.05;;;3.10;99.90;;;;;;466103;255;27549;-78
2023/02/25 04:25:05;;;;;;;2.00;1.73;;;3.10;99.90;;;;;;466168;255;27562;-78
2023/02/25 04:27:06;;;;;;;5.00;1.92;;;3.10;99.90;;;;;;466170;255;27573;-78
2023/02/25 04:29:07;;;;;;;4.85;1.90;;;3.10;99.90;;;;;;466191;255;27565;-80
2023/02/25 04:31:09;;;;;;;4.20;2.30;;;3.20;99.90;;;;;;466202;255;27614;-79
2023/02/25 04:33:10;;;;;;;6.60;2.60;;;3.20;99.90;;;;;;466247;255;27557;-80
2023/02/25 04:35:12;;;;;;;5.45;2.58;;;3.30;99.90;;;;;;466140;255;27608;-78
2023/02/25 04:37:12;;;;;;;4.12;1.90;;;3.30;99.90;;;;;;466146;255;27608;-80
2023/02/25 04:39:14;;;;;;;4.93;2.28;;;3.30;99.90;;;;;;466259;255;27578;-77
2023/02/25 04:41:15;;;;;;;5.20;2.33;;;3.30;99.90;;;;;;466373;253;27603;-79
2023/02/25 04:43:16;;;;;;;6.50;2.58;;;3.40;99.90;;;;;;466183;255;27635;-78
2023/02/25 04:45:17;;;;;;;5.35;2.25;;;3.40;99.90;;;;;;466228;255;28078;-78
2023/02/25 04:47:19;;;;;;;3.65;1.95;;;3.40;99.90;;;;;;466215;255;28088;-77
2023/02/25 04:49:20;;;;;;;4.80;2.50;;;3.40;99.90;;;;;;466231;255;29135;-78
2023/02/25 04:51:21;;;;;;;6.43;2.30;;;3.50;99.90;;;;;;466226;255;27628;-77
2023/02/25 04:53:22;;;;;;;3.03;2.25;;;3.50;99.90;;;;;;466270;253;27551;-78
2023/02/25 04:55:24;;;;;;;3.22;2.35;;;3.50;99.90;;;;;;466307;253;27677;-81
2023/02/25 04:57:25;;;;;;;4.07;2.00;;;3.50;99.90;;;;;;466189;255;27595;-80
2023/02/25 04:59:26;;;;;;;6.12;2.95;;;3.50;99.90;;;;;;466185;255;27573;-78
2023/02/25 05:01:28;;;;;;;5.65;2.25;;;3.50;99.90;;;;;;466190;255;27946;-80
2023/02/25 05:03:29;;;;;;;6.10;2.60;;;3.50;99.90;;;;;;466483;253;27553;-79
2023/02/25 05:05:30;;;;;;;5.47;2.12;;;3.50;99.90;;;;;;466222;255;27661;-79
2023/02/25 05:07:31;;;;;;;6.40;2.50;;;3.50;99.90;;;;;;466223;255;27594;-78
2023/02/25 05:09:32;;;;;;;4.22;2.20;;;3.50;99.90;;;;;;466226;255;27560;-79
2023/02/25 05:11:34;;;;;;;9.32;3.15;;;3.50;99.90;;;;;;466215;255;28068;-80
2023/02/25 05:13:35;;;;;;;4.20;2.25;;;3.50;99.90;;;;;;466180;255;28029;-78
2023/02/25 05:15:36;;;;;;;3.75;2.10;;;3.50;99.90;;;;;;466200;255;28157;-78
2023/02/25 05:17:37;;;;;;;3.95;2.30;;;3.50;99.90;;;;;;466188;253;29181;-79
2023/02/25 05:19:39;;;;;;;3.70;2.37;;;3.50;99.90;;;;;;466453;253;27657;-78
2023/02/25 05:21:40;;;;;;;3.92;2.22;;;3.50;99.90;;;;;;466117;255;27585;-79
2023/02/25 05:23:41;;;;;;;4.05;2.03;;;3.50;99.90;;;;;;466222;255;27594;-78
2023/02/25 05:25:42;;;;;;;4.12;2.30;;;3.50;99.90;;;;;;466205;255;27658;-77
2023/02/25 05:27:44;;;;;;;5.95;2.20;;;3.40;99.90;;;;;;466230;255;27630;-78
2023/02/25 05:29:45;;;;;;;4.60;2.35;;;3.40;99.90;;;;;;466224;255;27588;-83
2023/02/25 05:31:48;;;;;;;4.45;2.42;;;3.40;99.90;;;;;;466243;255;27640;-78
2023/02/25 05:33:47;;;;;;;3.85;1.90;;;3.40;99.90;;;;;;466243;255;27565;-78
2023/02/25 05:35:49;;;;;;;2.28;2.12;;;3.40;99.90;;;;;;466253;255;27650;-77
2023/02/25 05:37:50;;;;;;;5.43;2.17;;;3.40;99.90;;;;;;466219;255;27553;-79
2023/02/25 05:39:51;;;;;;;5.43;2.00;;;3.50;99.90;;;;;;466245;255;28054;-77
2023/02/25 05:41:53;;;;;;;6.78;2.45;;;3.50;99.90;;;;;;466199;255;28048;-78
2023/02/25 05:43:54;;;;;;;3.50;2.20;;;3.50;99.90;;;;;;466214;255;27979;-78
2023/02/25 05:45:55;;;;;;;3.72;1.90;;;3.40;99.90;;;;;;466188;255;28091;-79
2023/02/25 05:47:56;;;;;;;2.87;1.77;;;3.40;99.90;;;;;;466232;255;27606;-79
2023/02/25 05:49:57;;;;;;;3.37;1.95;;;3.40;99.90;;;;;;466249;255;27554;-77
2023/02/25 05:51:59;;;;;;;6.10;2.17;;;3.40;99.90;;;;;;466240;255;27593;-78
2023/02/25 05:54:00;;;;;;;4.95;2.45;;;3.40;99.90;;;;;;466265;255;27531;-79
2023/02/25 05:56:01;;;;;;;5.18;2.33;;;3.40;99.90;;;;;;466294;253;27596;-78
2023/02/25 05:58:02;;;;;;;6.05;2.10;;;3.40;99.90;;;;;;466157;255;27598;-80
2023/02/25 06:00:05;;;;;;;6.70;2.10;;;3.40;99.90;;;;;;466238;255;27570;-78
2023/02/25 06:02:05;;;;;;;4.07;1.77;;;3.40;99.90;;;;;;466128;253;27585;-80
2023/02/25 06:04:06;;;;;;;4.28;1.90;;;3.40;99.90;;;;;;466187;255;27545;-79
2023/02/25 06:06:09;;;;;;;6.78;2.28;;;3.50;99.90;;;;;;466214;255;27584;-78
2023/02/25 06:08:09;;;;;;;9.95;4.37;;;3.50;99.90;;;;;;466200;255;28142;-80
2023/02/25 06:10:10;;;;;;;2.40;1.85;;;3.50;99.90;;;;;;466259;255;28073;-79
2023/02/25 06:12:12;;;;;;;3.35;2.10;;;3.50;99.90;;;;;;466211;255;29153;-79
2023/02/25 06:14:12;;;;;;;2.97;1.80;;;3.50;99.90;;;;;;466219;255;29083;-80
2023/02/25 06:16:14;;;;;;;3.85;2.15;;;3.50;99.90;;;;;;466226;255;27584;-79
2023/02/25 06:18:15;;;;;;;3.28;1.92;;;3.50;99.90;;;;;;466230;255;27681;-78
2023/02/25 06:20:16;;;;;;;5.40;2.45;;;3.50;99.90;;;;;;466233;255;27644;-79
2023/02/25 06:22:17;;;;;;;3.92;2.17;;;3.50;99.90;;;;;;466257;255;27686;-80
2023/02/25 06:24:19;;;;;;;3.87;2.00;;;3.50;99.90;;;;;;466293;254;27728;-77
2023/02/25 06:26:20;;;;;;;4.80;2.67;;;3.50;99.90;;;;;;466176;255;27585;-78
2023/02/25 06:28:21;;;;;;;4.10;1.83;;;3.50;99.90;;;;;;466239;255;27948;-76
2023/02/25 06:30:22;;;;;;;4.55;2.10;;;3.50;99.90;;;;;;466250;255;27542;-78
2023/02/25 06:32:24;;;;;;;3.87;2.20;;;3.50;99.90;;;;;;466222;255;27590;-78
2023/02/25 06:34:31;;;;;;;3.20;2.20;;;3.50;99.90;;;;;;466305;253;27617;-78
2023/02/25 06:36:26;;;;;;;7.35;2.50;;;3.50;99.90;;;;;;466213;255;28165;-78
2023/02/25 06:38:27;;;;;;;4.97;2.10;;;3.50;99.90;;;;;;466250;255;28047;-78
2023/02/25 06:40:29;;;;;;;6.87;1.95;;;3.50;99.90;;;;;;466208;255;28016;-81
2023/02/25 06:42:30;;;;;;;4.65;2.10;;;3.50;99.90;;;;;;466231;255;28063;-81
2023/02/25 06:44:31;;;;;;;6.35;1.90;;;3.50;99.90;;;;;;466138;255;27665;-78
2023/02/25 06:46:32;;;;;;;4.40;2.40;;;3.60;99.90;;;;;;466204;255;27592;-78
2023/02/25 06:48:34;;;;;;;5.00;2.40;;;3.60;99.90;;;;;;466255;255;27682;-78
2023/02/25 06:50:35;;;;;;;3.53;2.08;;;3.60;99.90;;;;;;466211;255;27614;-78
2023/02/25 06:52:36;;;;;;;3.92;2.08;;;3.60;99.90;;;;;;466225;255;27573;-78
2023/02/25 06:54:37;;;;;;;5.62;1.92;;;3.60;99.90;;;;;;466207;255;27533;-78
2023/02/25 06:56:39;;;;;;;3.90;2.15;;;3.60;99.90;;;;;;466208;255;27505;-78
2023/02/25 06:58:40;;;;;;;8.68;2.03;;;3.70;99.90;;;;;;466252;255;27612;-78
2023/02/25 07:00:41;;;;;;;4.55;2.22;;;3.70;99.90;;;;;;466246;255;27585;-77
2023/02/25 07:02:42;;;;;;;3.03;1.90;;;3.70;99.90;;;;;;466173;255;27573;-79
2023/02/25 07:04:44;;;;;;;3.30;2.00;;;3.70;99.90;;;;;;466177;255;29183;-79
2023/02/25 07:06:45;;;;;;;3.25;2.10;;;3.60;99.90;;;;;;466250;255;27997;-79
2023/02/25 07:08:46;;;;;;;3.70;2.08;;;3.70;99.90;;;;;;466196;255;28008;-81
2023/02/25 07:10:47;;;;;;;3.30;2.12;;;3.70;99.90;;;;;;466222;255;27617;-82
2023/02/25 07:12:49;;;;;;;4.03;2.12;;;3.70;99.90;;;;;;466230;255;27672;-78
2023/02/25 07:14:50;;;;;;;5.93;2.03;;;3.70;99.90;;;;;;466226;255;27613;-78
2023/02/25 07:16:51;;;;;;;4.55;1.85;;;3.70;99.90;;;;;;466184;255;27581;-77
2023/02/25 07:18:53;;;;;;;5.60;2.03;;;3.70;99.90;;;;;;466243;255;27493;-78
2023/02/25 07:20:54;;;;;;;3.05;2.10;;;3.70;99.90;;;;;;466210;255;27652;-79
2023/02/25 07:22:55;;;;;;;4.30;2.30;;;3.70;99.90;;;;;;466238;255;27702;-78
2023/02/25 07:24:56;;;;;;;3.95;2.05;;;3.80;99.90;;;;;;466236;255;27551;-78
2023/02/25 07:26:58;;;;;;;5.80;2.40;;;3.80;99.90;;;;;;466257;255;27546;-77
2023/02/25 07:28:59;;;;;;;5.18;2.30;;;3.80;99.90;;;;;;466249;255;27582;-81
2023/02/25 07:31:00;;;;;;;5.80;2.30;;;3.90;99.90;;;;;;466241;255;28021;-79
2023/02/25 07:33:01;;;;;;;4.10;1.90;;;3.80;99.90;;;;;;466221;255;28053;-80
2023/02/25 07:35:03;;;;;;;4.78;2.40;;;3.90;99.60;;;;;;466203;255;27976;-80
2023/02/25 07:37:04;;;;;;;2.08;1.67;;;3.90;99.50;;;;;;466250;253;27602;-78
2023/02/25 07:39:05;;;;;;;3.08;1.80;;;4.00;99.30;;;;;;466165;255;27597;-78
2023/02/25 07:41:06;;;;;;;3.45;1.90;;;4.10;98.80;;;;;;466291;254;27527;-82
2023/02/25 07:43:08;;;;;;;3.58;1.75;;;4.10;98.50;;;;;;466272;255;27578;-78
2023/02/25 07:45:09;;;;;;;4.55;2.28;;;4.20;98.70;;;;;;466232;255;27572;-78
2023/02/25 07:47:10;;;;;;;4.22;2.30;;;4.20;98.40;;;;;;466240;255;27641;-81
2023/02/25 07:49:11;;;;;;;9.52;2.55;;;4.20;99.10;;;;;;466259;255;27609;-79
2023/02/25 07:51:14;;;;;;;6.75;2.22;;;4.30;99.90;;;;;;466238;255;27541;-80
2023/02/25 07:53:14;;;;;;;3.62;2.20;;;4.30;97.90;;;;;;466266;255;28054;-81
2023/02/25 07:55:15;;;;;;;6.90;2.28;;;4.40;97.60;;;;;;466416;253;28813;-80
2023/02/25 07:57:16;;;;;;;6.00;2.20;;;4.40;99.00;;;;;;466230;255;28016;-81
2023/02/25 07:59:18;;;;;;;4.62;2.00;;;4.40;98.10;;;;;;466199;255;27588;-81
2023/02/25 08:01:19;;;;;;;2.95;2.00;;;4.40;98.70;;;;;;466248;255;27638;-82
2023/02/25 08:03:20;;;;;;;8.73;2.60;;;4.50;98.70;;;;;;466254;255;27572;-81
2023/02/25 08:05:23;;;;;;;4.28;2.17;;;4.50;99.30;;;;;;466241;255;27945;-81
2023/02/25 08:07:23;;;;;;;5.32;2.37;;;4.50;99.30;;;;;;466264;255;27558;-81
2023/02/25 08:09:24;;;;;;;4.82;1.80;;;4.50;99.20;;;;;;466194;255;27589;-81
2023/02/25 08:11:26;;;;;;;7.32;2.50;;;4.50;99.90;;;;;;466253;255;27525;-81
2023/02/25 08:13:26;;;;;;;5.57;2.28;;;4.50;99.90;;;;;;466150;255;28090;-81
2023/02/25 08:15:28;;;;;;;5.03;2.53;;;4.50;99.90;;;;;;466267;254;28172;-81
2023/02/25 08:17:31;;;;;;;6.15;2.37;;;4.50;99.90;;;;;;466261;255;27619;-82
2023/02/25 08:19:30;;;;;;;12.23;2.25;;;4.50;99.90;;;;;;466214;255;27569;-81
2023/02/25 08:21:31;;;;;;;3.37;2.50;;;4.50;99.90;;;;;;466226;255;27574;-82
2023/02/25 08:23:33;;;;;;;4.57;2.22;;;4.50;99.90;;;;;;466195;255;27577;-82
2023/02/25 08:25:34;;;;;;;3.33;2.12;;;4.60;99.90;;;;;;466272;255;27937;-78
2023/02/25 08:27:35;;;;;;;6.37;2.10;;;4.60;99.90;;;;;;466224;255;27553;-79
2023/02/25 08:29:36;;;;;;;3.45;1.83;;;4.60;99.90;;;;;;466158;255;28068;-81
2023/02/25 08:31:38;;;;;;;8.88;2.65;;;4.60;99.90;;;;;;466134;255;28001;-80
2023/02/25 08:33:39;;;;;;;4.07;2.47;;;4.60;99.90;;;;;;466186;255;27584;-80
2023/02/25 08:35:40;;;;;;;4.12;2.20;;;4.60;99.90;;;;;;466152;255;27644;-81
2023/02/25 08:37:43;;;;;;;7.72;2.83;;;4.70;99.90;;;;;;466252;255;27666;-80
2023/02/25 08:39:43;;;;;;;7.47;2.20;;;4.70;99.90;;;;;;466227;255;27578;-81
2023/02/25 08:41:44;;;;;;;6.15;2.30;;;4.60;99.90;;;;;;466194;255;27649;-81
2023/02/25 08:43:45;;;;;;;5.75;3.00;;;4.50;99.90;;;;;;466306;255;27609;-81
2023/02/25 08:45:46;;;;;;;3.15;1.90;;;4.60;99.90;;;;;;466185;255;28780;-81
2023/02/25 08:47:48;;;;;;;6.65;2.37;;;4.50;99.90;;;;;;466278;255;28080;-81
2023/02/25 08:49:49;;;;;;;12.40;2.37;;;4.40;99.90;;;;;;466321;255;27595;-80
2023/02/25 08:51:50;;;;;;;7.03;2.00;;;4.40;99.90;;;;;;466265;255;27633;-81
2023/02/25 08:53:51;;;;;;;14.80;2.70;;;4.40;99.90;;;;;;466248;255;27610;-81
2023/02/25 08:55:53;;;;;;;4.62;1.87;;;4.40;99.90;;;;;;466273;255;27574;-83
2023/02/25 08:57:54;;;;;;;7.50;2.20;;;4.40;99.90;;;;;;466226;255;27641;-79
2023/02/25 08:59:55;;;;;;;5.85;2.15;;;4.50;99.90;;;;;;466362;253;27664;-80
2023/02/25 09:01:57;;;;;;;7.32;2.10;;;4.50;99.90;;;;;;466246;255;27550;-81
2023/02/25 09:03:58;;;;;;;3.95;2.20;;;4.60;99.90;;;;;;466066;255;28137;-81
2023/02/25 09:05:59;;;;;;;8.10;1.92;;;4.60;99.90;;;;;;466294;255;28100;-82
2023/02/25 09:08:00;;;;;;;4.30;1.90;;;4.70;99.90;;;;;;466265;255;27534;-82
2023/02/25 09:10:05;;;;;;;9.23;1.87;;;4.70;99.90;;;;;;466276;255;27580;-78
2023/02/25 09:12:04;;;;;;;6.90;2.37;;;4.70;99.90;;;;;;466254;255;27522;-78
2023/02/25 09:14:04;;;;;;;4.68;1.95;;;4.80;99.90;;;;;;466211;255;27576;-81
2023/02/25 09:16:05;;;;;;;3.40;1.67;;;4.90;99.90;;;;;;466276;255;27891;-81
2023/02/25 09:18:07;;;;;;;6.25;1.95;;;4.90;99.90;;;;;;466274;255;27560;-80
2023/02/25 09:20:10;;;;;;;5.68;2.17;;;4.70;99.90;;;;;;466211;255;28087;-81
2023/02/25 09:22:09;;;;;;;11.80;2.30;;;4.70;99.90;;;;;;466230;255;28141;-81
2023/02/25 09:24:10;;;;;;;6.97;2.30;;;4.60;99.90;;;;;;466178;255;27574;-81
2023/02/25 09:26:12;;;;;;;6.90;2.05;;;4.70;99.90;;;;;;466174;255;27597;-81
2023/02/25 09:28:13;;;;;;;3.28;2.08;;;4.60;99.90;;;;;;466222;255;27650;-81
2023/02/25 09:30:14;;;;;;;6.32;2.15;;;4.50;99.90;;;;;;466307;255;27593;-80
2023/02/25 09:32:15;;;;;;;4.75;1.90;;;4.50;99.90;;;;;;466085;254;27528;-80
2023/02/25 09:34:17;;;;;;;5.37;2.28;;;4.60;99.90;;;;;;466293;255;27585;-80
2023/02/25 09:36:18;;;;;;;10.23;2.10;;;4.70;99.90;;;;;;466167;255;28138;-81
2023/02/25 09:38:19;;;;;;;5.40;2.25;;;4.70;99.90;;;;;;466190;255;28020;-81
2023/02/25 09:40:21;;;;;;;3.65;1.95;;;4.60;99.90;;;;;;466303;255;27677;-81
2023/02/25 09:42:22;;;;;;;8.63;2.70;;;4.60;99.90;;;;;;466231;255;27581;-80
2023/02/25 09:44:23;;;;;;;8.98;2.87;;;4.50;99.90;;;;;;466254;255;28060;-78
2023/02/25 09:46:24;;;;;;;3.72;1.90;;;4.50;99.90;;;;;;466274;255;28222;-82
2023/02/25 09:48:25;;;;;;;8.93;2.40;;;4.50;99.90;;;;;;466353;255;27539;-80
2023/02/25 09:50:27;;;;;;;7.62;1.90;;;4.60;99.90;;;;;;466268;255;27625;-80
2023/02/25 09:52:28;;;;;;;7.22;1.95;;;4.50;99.90;;;;;;466275;254;27556;-79
2023/02/25 09:54:29;;;;;;;6.50;2.20;;;4.50;99.90;;;;;;466242;255;28060;-81
2023/02/25 09:56:30;;;;;;;7.85;3.75;;;4.40;99.90;;;;;;466293;255;28068;-80
2023/02/25 09:58:32;;;;;;;3.75;1.92;;;4.20;99.90;;;;;;466266;255;27577;-78
2023/02/25 10:00:33;;;;;;;12.68;2.97;;;4.10;99.90;;;;;;466276;255;27585;-79
2023/02/25 10:02:34;;;;;;;7.90;2.17;;;4.10;99.90;;;;;;466224;255;27647;-79
2023/02/25 10:04:36;;;;;;;6.97;2.33;;;4.00;99.90;;;;;;466239;254;27573;-79
2023/02/25 10:06:37;;;;;;;7.78;2.15;;;4.10;99.90;;;;;;466274;255;28025;-81
2023/02/25 10:08:38;;;;;;;7.60;2.30;;;4.10;99.90;;;;;;466284;255;27529;-78
2023/02/25 10:10:39;;;;;;;9.65;3.10;;;4.10;99.90;;;;;;466295;255;27612;-78
2023/02/25 10:12:40;;;;;;;5.45;2.80;;;4.10;99.90;;;;;;466301;255;28428;-79
2023/02/25 10:14:42;;;;;;;5.25;2.30;;;4.10;99.90;;;;;;466297;255;28101;-80
2023/02/25 10:16:43;;;;;;;7.87;2.37;;;4.20;99.90;;;;;;466318;253;28147;-80
2023/02/25 10:18:45;;;;;;;8.57;2.10;;;4.30;99.90;;;;;;466240;255;27693;-80
2023/02/25 10:20:45;;;;;;;6.43;2.22;;;4.40;99.90;;;;;;466160;255;27607;-81
2023/02/25 10:22:47;;;;;;;4.62;1.95;;;4.50;99.90;;;;;;466293;255;27653;-80
2023/02/25 10:24:48;;;;;;;4.22;1.90;;;4.60;99.90;;;;;;466192;255;27572;-81
2023/02/25 10:26:49;;;;;;;6.03;2.20;;;4.70;99.90;;;;;;466323;253;27679;-81
2023/02/25 10:28:50;;;;;;;8.00;2.30;;;4.60;99.90;;;;;;466316;255;28039;-81
2023/02/25 10:30:52;;;;;;;8.15;2.30;;;4.60;99.90;;;;;;466313;255;28073;-80
2023/02/25 10:32:53;;;;;;;4.35;2.00;;;4.50;99.90;;;;;;466189;255;29128;-81
2023/02/25 10:34:54;;;;;;;8.75;2.67;;;4.60;99.90;;;;;;466343;255;27650;-78
2023/02/25 10:36:55;;;;;;;7.20;2.25;;;4.70;99.90;;;;;;466309;255;27666;-78